createdAt,value
2023-01-28T00:01:27.711Z,15.00
2023-01-28T00:03:55.135Z,22.00
2023-01-28T00:06:22.546Z,20.33
2023-01-28T00:08:50.058Z,22.67
2023-01-28T00:11:17.460Z,32.50
2023-01-28T00:13:43.945Z,28.50
2023-01-28T00:16:11.489Z,24.67
2023-01-28T00:18:38.918Z,22.67
2023-01-28T00:21:05.348Z,15.50
2023-01-28T00:23:32.741Z,18.67
2023-01-28T00:26:00.009Z,15.33
2023-01-28T00:28:27.331Z,16.67
2023-01-28T00:30:55.642Z,14.00
2023-01-28T00:33:22.089Z,15.50
2023-01-28T00:35:49.350Z,19.33
2023-01-28T00:38:15.756Z,18.50
2023-01-28T00:40:44.938Z,13.50
2023-01-28T00:43:13.236Z,15.20
2023-01-28T00:45:41.615Z,15.40
2023-01-28T00:48:08.215Z,11.50
2023-01-28T00:50:35.443Z,16.00
2023-01-28T00:53:02.728Z,16.00
2023-01-28T00:55:29.283Z,16.50
2023-01-28T00:57:57.577Z,12.00
2023-01-28T01:03:10.990Z,11.40
2023-01-28T01:05:38.227Z,12.25
2023-01-28T01:08:04.698Z,11.50
2023-01-28T01:10:31.164Z,11.00
2023-01-28T01:12:57.631Z,13.50
2023-01-28T01:18:19.165Z,13.00
2023-01-28T01:20:45.645Z,11.00
2023-01-28T01:23:14.816Z,11.50
2023-01-28T01:25:43.108Z,14.00
2023-01-28T01:28:11.409Z,12.60
2023-01-28T01:33:23.490Z,14.00
2023-01-28T01:35:49.888Z,10.50
2023-01-28T01:38:18.218Z,14.00
2023-01-28T01:40:44.615Z,10.00
2023-01-28T01:43:10.943Z,7.67
2023-01-28T01:48:22.124Z,10.75
2023-01-28T01:50:48.497Z,9.50
2023-01-28T01:53:15.060Z,11.00
2023-01-28T01:55:44.289Z,11.67
2023-01-28T01:58:10.719Z,11.50
2023-01-28T02:03:34.186Z,10.33
2023-01-28T02:06:00.652Z,9.00
2023-01-28T02:08:27.066Z,12.50
2023-01-28T02:10:53.540Z,10.50
2023-01-28T02:13:19.980Z,10.00
2023-01-28T02:18:42.945Z,10.50
2023-01-28T02:21:10.215Z,11.50
2023-01-28T02:23:39.590Z,12.00
2023-01-28T02:26:08.784Z,11.83
2023-01-28T02:28:35.213Z,10.00
2023-01-28T02:33:56.298Z,10.00
2023-01-28T02:36:22.732Z,9.50
2023-01-28T02:38:50.010Z,10.00
2023-01-28T02:41:16.359Z,7.00
2023-01-28T02:43:42.741Z,8.33
2023-01-28T02:48:56.657Z,9.00
2023-01-28T02:51:23.056Z,8.67
2023-01-28T02:53:49.432Z,8.00
2023-01-28T02:56:15.843Z,9.50
2023-01-28T02:58:42.270Z,9.00
2023-01-28T03:03:52.576Z,7.33
2023-01-28T03:06:18.900Z,7.33
2023-01-28T03:08:45.243Z,6.00
2023-01-28T03:11:11.614Z,6.67
2023-01-28T03:13:37.928Z,7.00
2023-01-28T03:18:57.869Z,7.67
2023-01-28T03:21:24.288Z,8.00
2023-01-28T03:23:50.642Z,6.00
2023-01-28T03:26:16.982Z,6.33
2023-01-28T03:28:43.319Z,7.33
2023-01-28T03:33:54.487Z,8.33
2023-01-28T03:36:21.705Z,7.00
2023-01-28T03:38:48.060Z,6.33
2023-01-28T03:41:14.416Z,5.33
2023-01-28T03:43:40.756Z,7.67
2023-01-28T03:48:51.059Z,8.00
2023-01-28T03:51:18.246Z,6.50
2023-01-28T03:53:44.616Z,6.67
2023-01-28T03:56:11.009Z,6.67
2023-01-28T03:58:37.351Z,6.33
2023-01-28T04:03:57.752Z,6.33
2023-01-28T04:06:24.064Z,6.33
2023-01-28T04:08:50.385Z,5.33
2023-01-28T04:11:16.784Z,4.33
2023-01-28T04:13:43.117Z,4.00
2023-01-28T04:18:53.187Z,5.33
2023-01-28T04:21:20.375Z,4.75
2023-01-28T04:23:46.743Z,4.33
2023-01-28T04:26:13.042Z,5.33
2023-01-28T04:28:39.443Z,5.00
2023-01-28T04:31:05.992Z,5.00
2023-01-28T04:33:32.404Z,4.33
2023-01-28T04:35:58.824Z,5.67
2023-01-28T04:38:25.152Z,6.33
2023-01-28T04:40:51.566Z,5.00
2023-01-28T04:43:17.884Z,5.33
2023-01-28T04:45:44.226Z,7.33
2023-01-28T04:48:10.567Z,6.00
2023-01-28T04:50:36.908Z,6.33
2023-01-28T04:53:03.333Z,5.33
2023-01-28T04:55:29.683Z,5.00
2023-01-28T04:57:56.057Z,4.33
2023-01-28T05:00:22.430Z,3.33
2023-01-28T05:02:48.758Z,5.33
2023-01-28T05:05:15.492Z,5.33
2023-01-28T05:07:42.065Z,4.67
2023-01-28T05:10:08.402Z,6.33
2023-01-28T05:12:34.810Z,5.00
2023-01-28T05:15:01.141Z,3.67
2023-01-28T05:17:27.544Z,6.33
2023-01-28T05:19:53.912Z,6.00
2023-01-28T05:22:20.282Z,5.33
2023-01-28T05:24:46.616Z,6.00
2023-01-28T05:27:13.825Z,4.00
2023-01-28T05:29:40.177Z,4.33
2023-01-28T05:32:06.634Z,5.00
2023-01-28T05:34:32.973Z,4.33
2023-01-28T05:36:59.326Z,6.00
2023-01-28T05:39:28.463Z,6.83
2023-01-28T05:41:54.883Z,6.33
2023-01-28T05:44:21.208Z,6.00
2023-01-28T05:46:47.547Z,5.33
2023-01-28T05:52:07.559Z,7.33
2023-01-28T05:54:33.921Z,6.33
2023-01-28T05:57:00.274Z,7.33
2023-01-28T05:59:26.697Z,5.00
2023-01-28T06:01:53.053Z,4.00
2023-01-28T06:07:03.127Z,5.00
2023-01-28T06:09:29.508Z,5.00
2023-01-28T06:11:55.906Z,5.00
2023-01-28T06:14:22.404Z,17.00
2023-01-28T06:16:50.687Z,15.60
2023-01-28T06:22:14.007Z,15.67
2023-01-28T06:24:40.505Z,16.00
2023-01-28T06:27:07.791Z,15.33
2023-01-28T06:29:36.973Z,13.00
2023-01-28T06:32:05.306Z,12.60
2023-01-28T06:37:17.661Z,14.20
2023-01-28T06:39:44.139Z,13.50
2023-01-28T06:42:11.379Z,14.67
2023-01-28T06:44:40.568Z,12.00
2023-01-28T06:47:08.200Z,13.50
2023-01-28T06:52:22.703Z,13.00
2023-01-28T06:54:49.371Z,12.00
2023-01-28T06:57:16.872Z,14.00
2023-01-28T06:59:44.166Z,16.00
2023-01-28T07:02:11.447Z,18.00
2023-01-28T07:07:33.889Z,14.00
2023-01-28T07:10:01.228Z,14.00
2023-01-28T07:12:27.728Z,13.00
2023-01-28T07:14:54.236Z,15.00
2023-01-28T07:17:20.761Z,34.50
2023-01-28T07:22:32.184Z,20.33
2023-01-28T07:24:59.590Z,19.00
2023-01-28T07:27:26.928Z,16.33
2023-01-28T07:29:54.173Z,13.00
2023-01-28T07:32:21.452Z,18.00
2023-01-28T07:37:42.784Z,14.50
2023-01-28T07:40:10.054Z,12.67
2023-01-28T07:42:36.526Z,13.00
2023-01-28T07:45:05.946Z,12.00
2023-01-28T07:47:32.431Z,12.00
2023-01-28T07:52:46.476Z,12.20
2023-01-28T07:55:12.894Z,16.00
2023-01-28T07:57:39.390Z,15.50
2023-01-28T08:00:06.689Z,17.33
2023-01-28T08:02:33.159Z,20.50
2023-01-28T08:07:57.284Z,15.67
2023-01-28T08:10:23.765Z,12.00
2023-01-28T08:12:50.195Z,11.00
2023-01-28T08:15:17.435Z,9.25
2023-01-28T08:17:43.782Z,8.00
2023-01-28T08:23:05.097Z,9.00
2023-01-28T08:25:32.323Z,10.00
2023-01-28T08:27:58.778Z,13.00
2023-01-28T08:30:25.328Z,28.00
2023-01-28T08:32:52.815Z,28.00
2023-01-28T08:38:15.195Z,27.00
2023-01-28T08:40:41.712Z,29.00
2023-01-28T08:43:08.171Z,24.50
2023-01-28T08:45:34.674Z,28.00
2023-01-28T08:48:02.132Z,22.33
2023-01-28T08:53:24.710Z,24.00
2023-01-28T08:55:52.115Z,21.00
2023-01-28T08:58:19.506Z,22.67
2023-01-28T09:00:46.919Z,22.00
2023-01-28T09:03:13.420Z,21.00
2023-01-28T09:08:25.666Z,15.00
2023-01-28T09:10:52.144Z,14.50
2023-01-28T09:13:18.680Z,14.00
2023-01-28T09:15:47.026Z,12.80
2023-01-28T09:18:15.355Z,17.40
2023-01-28T09:23:40.524Z,12.17
2023-01-28T09:26:07.133Z,10.00
2023-01-28T09:28:33.545Z,11.00
2023-01-28T09:31:00.078Z,11.00
2023-01-28T09:33:26.546Z,15.00
2023-01-28T09:38:40.070Z,13.50
2023-01-28T09:41:09.278Z,14.00
2023-01-28T09:43:35.685Z,12.00
2023-01-28T09:46:02.148Z,14.00
2023-01-28T09:48:28.570Z,12.50
2023-01-28T09:50:57.840Z,12.50
2023-01-28T09:53:24.346Z,14.00
2023-01-28T09:55:50.757Z,18.50
2023-01-28T09:58:18.140Z,15.00
2023-01-28T10:00:44.794Z,12.50
2023-01-28T10:03:11.276Z,11.50
2023-01-28T10:05:40.947Z,14.60
2023-01-28T10:08:09.373Z,16.80
2023-01-28T10:10:37.659Z,12.20
2023-01-28T10:13:04.100Z,12.00
2023-01-28T10:15:30.567Z,12.00
2023-01-28T10:18:14.558Z,16.00
2023-01-28T10:20:43.256Z,19.67
2023-01-28T10:23:10.616Z,19.33
2023-01-28T10:25:37.096Z,31.00
2023-01-28T10:28:03.592Z,27.50
2023-01-28T10:30:30.095Z,32.50
2023-01-28T10:32:57.533Z,21.67
2023-01-28T10:35:24.006Z,25.50
2023-01-28T10:37:51.511Z,28.33
2023-01-28T10:40:19.096Z,22.33
2023-01-28T10:42:45.554Z,19.00
2023-01-28T10:45:12.953Z,16.00
2023-01-28T10:47:41.237Z,13.40
2023-01-28T10:50:09.567Z,16.00
2023-01-28T10:52:37.865Z,12.80
2023-01-28T10:55:05.130Z,12.67
2023-01-28T10:57:31.573Z,10.50
2023-01-28T10:59:58.040Z,12.50
2023-01-28T11:02:24.520Z,12.00
2023-01-28T11:04:50.977Z,11.67
2023-01-28T11:07:17.450Z,10.67
2023-01-28T11:09:43.818Z,8.50
2023-01-28T11:12:11.062Z,10.00
2023-01-28T11:14:37.409Z,8.67
2023-01-28T11:17:03.893Z,9.00
2023-01-28T11:19:30.342Z,12.00
2023-01-28T11:21:56.762Z,9.00
2023-01-28T11:27:17.769Z,15.00
2023-01-28T11:29:47.714Z,16.00
2023-01-28T11:32:14.211Z,18.50
2023-01-28T11:34:42.585Z,90.00
2023-01-28T11:37:09.131Z,74.00
2023-01-28T11:42:31.593Z,72.00
2023-01-28T11:44:58.154Z,66.50
2023-01-28T11:47:24.908Z,65.00
2023-01-28T11:49:51.416Z,59.50
2023-01-28T11:52:19.007Z,56.00
2023-01-28T11:57:29.702Z,49.00
2023-01-28T11:59:56.223Z,51.50
2023-01-28T12:02:23.726Z,45.00
2023-01-28T12:04:51.173Z,47.67
2023-01-28T12:07:17.735Z,44.00
2023-01-28T12:12:30.481Z,45.00
2023-01-28T12:14:56.957Z,40.00
2023-01-28T12:17:25.420Z,48.00
2023-01-28T12:19:52.722Z,41.00
2023-01-28T12:22:19.178Z,38.00
2023-01-28T12:27:39.540Z,41.00
2023-01-28T12:30:06.009Z,32.00
2023-01-28T12:32:32.499Z,34.00
2023-01-28T12:34:59.900Z,33.50
2023-01-28T12:37:26.368Z,33.00
2023-01-28T12:42:47.942Z,27.50
2023-01-28T12:45:15.548Z,33.50
2023-01-28T12:47:42.031Z,32.00
2023-01-28T12:50:08.511Z,28.00
2023-01-28T12:52:34.982Z,27.50
2023-01-28T12:57:45.675Z,26.50
2023-01-28T13:00:13.184Z,31.50
2023-01-28T13:02:40.771Z,27.00
2023-01-28T13:05:07.282Z,28.50
2023-01-28T13:07:34.670Z,23.33
2023-01-28T13:12:46.260Z,24.00
2023-01-28T13:15:12.801Z,27.00
2023-01-28T13:17:39.359Z,25.50
2023-01-28T13:20:05.806Z,26.00
2023-01-28T13:22:32.254Z,19.00
2023-01-28T13:27:44.725Z,21.67
2023-01-28T13:30:12.099Z,21.00
2023-01-28T13:32:38.627Z,24.00
2023-01-28T13:35:06.051Z,21.67
2023-01-28T13:37:32.503Z,19.50
2023-01-28T13:42:53.473Z,19.50
2023-01-28T13:45:20.713Z,7.75
2023-01-28T13:47:47.175Z,24.00
2023-01-28T13:50:14.493Z,19.67
2023-01-28T13:52:41.764Z,17.00
2023-01-28T13:58:05.066Z,13.60
2023-01-28T14:00:31.492Z,16.50
2023-01-28T14:02:58.789Z,19.33
2023-01-28T14:05:25.658Z,18.50
2023-01-28T14:07:52.097Z,19.50
2023-01-28T14:13:04.335Z,16.00
2023-01-28T14:15:31.600Z,17.33
2023-01-28T14:17:58.968Z,18.33
2023-01-28T14:20:26.494Z,17.50
2023-01-28T14:22:53.809Z,16.00
2023-01-28T14:28:06.186Z,13.67
2023-01-28T14:30:33.468Z,15.67
2023-01-28T14:33:00.818Z,19.00
2023-01-28T14:35:27.224Z,10.00
2023-01-28T14:37:54.728Z,15.67
2023-01-28T14:43:15.215Z,14.50
2023-01-28T14:45:43.544Z,14.60
2023-01-28T14:48:11.886Z,16.20
2023-01-28T14:50:39.144Z,14.33
2023-01-28T14:53:06.395Z,15.67
2023-01-28T14:58:27.802Z,13.50
2023-01-28T15:00:56.108Z,15.80
2023-01-28T15:03:25.388Z,14.67
2023-01-28T15:05:52.286Z,13.00
2023-01-28T15:08:18.745Z,14.50
2023-01-28T15:13:40.655Z,12.33
2023-01-28T15:16:07.905Z,12.33
2023-01-28T15:18:35.157Z,16.00
2023-01-28T15:21:01.645Z,11.00
2023-01-28T15:23:29.977Z,16.00
2023-01-28T15:28:40.391Z,13.00
2023-01-28T15:31:09.639Z,14.00
2023-01-28T15:33:37.039Z,14.33
2023-01-28T15:36:05.344Z,13.60
2023-01-28T15:38:35.300Z,12.43
2023-01-28T15:43:46.647Z,13.50
2023-01-28T15:46:13.907Z,14.67
2023-01-28T15:48:40.321Z,13.00
2023-01-28T15:51:08.644Z,13.60
2023-01-28T15:53:36.973Z,12.60
2023-01-28T15:58:47.310Z,13.00
2023-01-28T16:01:13.849Z,15.50
2023-01-28T16:03:40.491Z,14.00
2023-01-28T16:06:09.486Z,13.00
2023-01-28T16:08:36.428Z,13.50
2023-01-28T16:13:47.379Z,12.00
2023-01-28T16:16:15.845Z,11.80
2023-01-28T16:18:45.811Z,12.86
2023-01-28T16:21:13.035Z,12.00
2023-01-28T16:23:40.258Z,12.33
2023-01-28T16:29:01.604Z,15.50
2023-01-28T16:31:28.050Z,12.00
2023-01-28T16:33:56.430Z,13.60
2023-01-28T16:36:24.705Z,12.00
2023-01-28T16:38:53.899Z,10.83
2023-01-28T16:44:16.371Z,12.00
2023-01-28T16:46:44.779Z,12.40
2023-01-28T16:49:13.992Z,13.33
2023-01-28T16:51:42.321Z,13.60
2023-01-28T16:54:12.242Z,11.43
2023-01-28T16:59:34.529Z,11.50
2023-01-28T17:02:00.972Z,11.50
2023-01-28T17:04:28.275Z,12.00
2023-01-28T17:06:56.586Z,13.40
2023-01-28T17:09:25.776Z,12.67
2023-01-28T17:14:48.201Z,10.20
2023-01-28T17:17:14.929Z,10.00
2023-01-28T17:19:41.353Z,10.00
2023-01-28T17:22:07.787Z,11.00
2023-01-28T17:24:34.274Z,13.00
2023-01-28T17:29:48.251Z,10.17
2023-01-28T17:32:14.762Z,9.50
2023-01-28T17:34:41.403Z,10.50
2023-01-28T17:37:07.836Z,9.50
2023-01-28T17:39:34.407Z,9.33
2023-01-28T17:42:00.785Z,7.67
2023-01-28T17:44:27.308Z,31.00
2023-01-28T17:46:54.716Z,23.00
2023-01-28T17:49:21.152Z,19.50
2023-01-28T17:51:48.540Z,19.67
2023-01-28T17:54:15.001Z,14.00
2023-01-28T17:56:43.346Z,16.40
2023-01-28T17:59:09.864Z,14.00
2023-01-28T18:01:38.134Z,14.00
2023-01-28T18:04:05.575Z,13.33
2023-01-28T18:06:32.073Z,13.00
2023-01-28T18:08:58.742Z,13.00
2023-01-28T18:11:25.219Z,12.50
2023-01-28T18:13:51.666Z,13.00
2023-01-28T18:16:18.188Z,12.00
2023-01-28T18:18:44.918Z,13.00
2023-01-28T18:21:11.690Z,11.00
2023-01-28T18:23:38.129Z,10.50
2023-01-28T18:26:07.279Z,9.17
2023-01-28T18:28:33.714Z,11.00
2023-01-28T18:31:00.202Z,10.50
2023-01-28T18:33:26.773Z,12.00
2023-01-28T18:35:53.141Z,9.00
2023-01-28T18:38:19.558Z,10.33
2023-01-28T18:40:45.968Z,9.33
2023-01-28T18:43:12.325Z,7.67
2023-01-28T18:45:38.694Z,1.00
2023-01-28T18:48:05.137Z,9.00
2023-01-28T18:50:31.644Z,6.00
2023-01-28T18:52:58.024Z,6.67
2023-01-28T18:55:24.353Z,7.00
2023-01-28T18:57:51.598Z,9.75
2023-01-28T19:03:02.854Z,7.00
2023-01-28T19:05:29.203Z,9.00
2023-01-28T19:07:55.574Z,6.67
2023-01-28T19:10:21.937Z,6.00
2023-01-28T19:12:48.285Z,6.67
2023-01-28T19:18:09.808Z,7.00
2023-01-28T19:20:36.339Z,6.00
2023-01-28T19:23:02.692Z,7.00
2023-01-28T19:25:29.100Z,4.67
2023-01-28T19:27:55.496Z,6.00
2023-01-28T19:33:05.759Z,6.00
2023-01-28T19:35:32.145Z,5.67
2023-01-28T19:37:58.536Z,6.33
2023-01-28T19:40:25.024Z,6.00
2023-01-28T19:42:51.543Z,6.67
2023-01-28T19:48:12.576Z,4.00
2023-01-28T19:50:39.081Z,5.33
2023-01-28T19:53:05.446Z,5.67
2023-01-28T19:55:31.779Z,7.67
2023-01-28T19:57:58.143Z,6.67
2023-01-28T20:03:08.706Z,5.33
2023-01-28T20:05:35.050Z,6.33
2023-01-28T20:08:04.266Z,9.67
2023-01-28T20:10:31.495Z,7.50
2023-01-28T20:12:58.079Z,11.00
2023-01-28T20:18:20.351Z,17.33
2023-01-28T20:20:47.014Z,14.00
2023-01-28T20:23:13.435Z,13.50
2023-01-28T20:25:39.950Z,12.50
2023-01-28T20:28:06.406Z,15.00
2023-01-28T20:33:17.983Z,13.67
2023-01-28T20:35:46.329Z,13.60
2023-01-28T20:38:14.692Z,12.00
2023-01-28T20:40:41.965Z,12.00
2023-01-28T20:43:10.420Z,11.80
2023-01-28T20:48:22.079Z,12.00
2023-01-28T20:50:50.426Z,13.40
2023-01-28T20:53:18.709Z,10.80
2023-01-28T20:55:47.902Z,9.67
2023-01-28T20:58:17.077Z,12.00
2023-01-28T21:03:37.541Z,10.00
2023-01-28T21:06:03.972Z,10.00
2023-01-28T21:08:30.415Z,13.00
2023-01-28T21:10:56.813Z,9.00
2023-01-28T21:13:23.155Z,7.00
2023-01-28T21:18:43.509Z,9.67
2023-01-28T21:21:10.106Z,12.00
2023-01-28T21:23:36.528Z,10.00
2023-01-28T21:26:02.889Z,6.67
2023-01-28T21:28:29.279Z,6.00
2023-01-28T21:33:39.690Z,6.67
2023-01-28T21:36:06.095Z,5.33
2023-01-28T21:38:35.455Z,13.50
2023-01-28T21:41:01.839Z,6.00
2023-01-28T21:43:28.214Z,8.33
2023-01-28T21:48:50.187Z,8.00
2023-01-28T21:51:17.426Z,7.75
2023-01-28T21:53:43.814Z,6.33
2023-01-28T21:56:10.247Z,7.67
2023-01-28T21:58:36.598Z,7.33
2023-01-28T22:03:56.561Z,7.00
2023-01-28T22:06:23.825Z,10.25
2023-01-28T22:08:51.084Z,10.00
2023-01-28T22:11:18.460Z,7.50
2023-01-28T22:13:44.810Z,7.00
2023-01-28T22:18:59.965Z,108.67
2023-01-28T22:21:28.192Z,85.33
2023-01-28T22:23:56.606Z,83.33
2023-01-28T22:26:23.153Z,68.00
2023-01-28T22:28:50.613Z,68.00
2023-01-28T22:34:02.379Z,55.00
2023-01-28T22:36:29.889Z,55.33
2023-01-28T22:38:57.705Z,43.00
2023-01-28T22:41:24.196Z,42.00
2023-01-28T22:43:50.655Z,36.00
2023-01-28T22:49:12.017Z,32.00
2023-01-28T22:51:38.711Z,37.50
2023-01-28T22:54:05.190Z,34.50
2023-01-28T22:56:31.649Z,28.50
2023-01-28T22:58:58.142Z,28.50
2023-01-28T23:04:09.540Z,38.00
2023-01-28T23:06:36.056Z,33.50
2023-01-28T23:09:02.535Z,38.00
2023-01-28T23:11:29.180Z,40.00
2023-01-28T23:13:56.639Z,33.67
2023-01-28T23:16:24.037Z,30.50
2023-01-28T23:18:50.505Z,26.00
2023-01-28T23:21:17.893Z,27.50
2023-01-28T23:23:44.375Z,23.00
2023-01-28T23:26:10.869Z,21.00
2023-01-28T23:28:38.244Z,18.33
2023-01-28T23:31:04.731Z,16.00
2023-01-28T23:33:32.167Z,17.67
2023-01-28T23:35:59.518Z,18.00
2023-01-28T23:38:26.806Z,15.00
2023-01-28T23:40:54.120Z,17.00
2023-01-28T23:43:20.558Z,15.00
2023-01-28T23:45:48.869Z,15.80
2023-01-28T23:48:15.407Z,13.50
2023-01-28T23:50:45.335Z,12.29
2023-01-28T23:53:11.758Z,13.00
2023-01-28T23:55:38.264Z,12.50
2023-01-28T23:58:04.709Z,12.00
